createdAt,value
2018-11-14T00:01:38.320Z,33.54
2018-11-14T00:07:33.291Z,37.42
2018-11-14T00:13:28.295Z,36.97
2018-11-14T00:19:23.307Z,35.13
2018-11-14T00:25:18.297Z,34.68
2018-11-14T00:31:13.289Z,32.13
2018-11-14T00:37:08.277Z,28.48
2018-11-14T00:43:03.295Z,27.33
2018-11-14T00:48:58.266Z,26.07
2018-11-14T00:54:53.275Z,31.53
2018-11-14T01:00:48.309Z,31.09
2018-11-14T01:06:43.279Z,30.52
2018-11-14T01:12:38.290Z,30.4
2018-11-14T01:18:33.285Z,28
2018-11-14T01:24:28.316Z,28.42
2018-11-14T01:30:23.283Z,27.78
2018-11-14T01:36:18.311Z,28.57
2018-11-14T01:42:13.309Z,30.11
2018-11-14T01:48:08.298Z,29.65
2018-11-14T01:54:03.329Z,29.09
2018-11-14T01:59:58.305Z,28.89
2018-11-14T02:05:53.291Z,28.48
2018-11-14T02:11:48.292Z,31.54
2018-11-14T02:17:43.319Z,30.69
2018-11-14T02:23:38.297Z,30.54
2018-11-14T02:29:33.296Z,28.5
2018-11-14T02:35:28.294Z,26.73
2018-11-14T02:41:23.306Z,27.01
2018-11-14T02:47:18.304Z,27.2
2018-11-14T02:53:13.307Z,26.06
2018-11-14T02:59:08.322Z,24.73
2018-11-14T03:05:03.295Z,24.85
2018-11-14T03:10:58.336Z,30.81
2018-11-14T03:16:53.340Z,24.32
2018-11-14T03:22:48.330Z,24.43
2018-11-14T03:28:43.326Z,26.49
2018-11-14T03:34:38.356Z,22.5
2018-11-14T03:40:33.327Z,21.44
2018-11-14T03:46:28.312Z,22.61
2018-11-14T03:52:23.350Z,21.05
2018-11-14T03:58:18.426Z,29.67
2018-11-14T04:04:13.375Z,28.37
2018-11-14T04:10:08.314Z,27.83
2018-11-14T04:16:03.368Z,27.53
2018-11-14T04:21:58.338Z,25.72
2018-11-14T04:27:53.362Z,26.79
2018-11-14T04:33:48.342Z,26.88
2018-11-14T04:39:43.343Z,27.73
2018-11-14T04:45:38.309Z,25.79
2018-11-14T04:51:33.329Z,26.9
2018-11-14T04:57:28.358Z,26.55
2018-11-14T05:03:23.330Z,27.26
2018-11-14T05:09:18.335Z,25.18
2018-11-14T05:15:13.350Z,24.94
2018-11-14T05:21:08.328Z,24.61
2018-11-14T05:27:03.349Z,24.72
2018-11-14T05:32:58.345Z,23.22
2018-11-14T05:38:53.377Z,23.02
2018-11-14T05:44:48.368Z,23.07
2018-11-14T05:50:43.346Z,22.63
2018-11-14T05:56:38.354Z,24.14
2018-11-14T06:02:33.387Z,22.89
2018-11-14T06:08:28.387Z,24.01
2018-11-14T06:14:23.355Z,23.76
2018-11-14T06:20:18.362Z,21.41
2018-11-14T06:26:13.369Z,23.16
2018-11-14T06:32:08.372Z,22.69
2018-11-14T06:38:03.354Z,25.2
2018-11-14T06:43:58.375Z,26.4
2018-11-14T06:49:53.405Z,27.66
2018-11-14T06:55:48.353Z,27.46
2018-11-14T07:01:43.374Z,29.62
2018-11-14T07:07:38.366Z,30.34
2018-11-14T07:13:33.365Z,27.32
2018-11-14T07:19:28.424Z,27.21
2018-11-14T07:25:23.348Z,26.76
2018-11-14T07:31:18.376Z,29.05
2018-11-14T07:37:13.373Z,30.96
2018-11-14T07:43:08.373Z,31.16
2018-11-14T07:49:03.414Z,32.56
2018-11-14T07:54:58.375Z,32.2
2018-11-14T08:00:53.376Z,31.48
2018-11-14T08:06:48.356Z,32.45
2018-11-14T08:12:43.399Z,34.63
2018-11-14T08:18:38.479Z,35.62
2018-11-14T08:24:33.399Z,33.6
2018-11-14T08:30:28.443Z,33.92
2018-11-14T08:36:23.391Z,35.52
2018-11-14T08:42:18.448Z,35.83
2018-11-14T08:48:13.417Z,33.7
2018-11-14T08:54:08.386Z,32.86
2018-11-14T09:00:03.430Z,35.44
2018-11-14T09:05:58.376Z,34.58
2018-11-14T09:11:53.382Z,36.37
2018-11-14T09:17:48.376Z,38.82
2018-11-14T09:23:43.445Z,43.75
2018-11-14T09:29:38.389Z,41.63
2018-11-14T09:35:33.378Z,44.84
2018-11-14T09:41:28.466Z,40.39
2018-11-14T09:47:23.389Z,40.91
2018-11-14T09:53:18.423Z,39.38
2018-11-14T09:59:13.421Z,39.78
2018-11-14T10:05:08.417Z,33.29
2018-11-14T10:11:03.436Z,26.43
2018-11-14T10:16:58.393Z,23.93
2018-11-14T10:22:53.457Z,24.94
2018-11-14T10:28:48.408Z,22.21
2018-11-14T10:34:43.425Z,23.67
2018-11-14T10:40:38.390Z,22.98
2018-11-14T10:46:33.416Z,23.28
2018-11-14T10:52:28.424Z,23.42
2018-11-14T10:58:23.474Z,24
2018-11-14T11:04:18.419Z,25.69
2018-11-14T11:10:13.440Z,29.04
2018-11-14T11:16:08.530Z,26.66
2018-11-14T11:22:03.423Z,29.25
2018-11-14T11:27:58.448Z,30.7
2018-11-14T11:33:53.402Z,29.87
2018-11-14T11:39:48.438Z,32.76
2018-11-14T11:45:43.472Z,28.85
2018-11-14T11:51:38.492Z,31.13
2018-11-14T11:57:33.460Z,28.96
2018-11-14T12:03:28.436Z,27.77
2018-11-14T12:09:23.433Z,25.03
2018-11-14T12:15:18.425Z,22.47
2018-11-14T12:21:13.509Z,23.89
2018-11-14T12:27:08.487Z,24.17
2018-11-14T12:33:03.496Z,23.65
2018-11-14T12:38:58.418Z,23.81
2018-11-14T12:44:53.498Z,34.3
2018-11-14T12:50:48.452Z,24.43
2018-11-14T12:56:43.474Z,54.97
2018-11-14T13:02:38.454Z,45.31
2018-11-14T13:08:33.440Z,51.17
2018-11-14T13:14:28.498Z,26.89
2018-11-14T13:20:23.456Z,55.78
2018-11-14T13:26:18.471Z,35.86
2018-11-14T13:32:13.477Z,47.9
2018-11-14T13:38:08.488Z,30.78
2018-11-14T13:44:03.459Z,23
2018-11-14T13:49:58.635Z,23.17
2018-11-14T13:55:53.486Z,21.63
2018-11-14T14:01:48.472Z,21.52
2018-11-14T14:07:43.532Z,23.49
2018-11-14T14:13:38.471Z,24.31
2018-11-14T14:19:33.465Z,22.61
2018-11-14T14:25:28.474Z,22.13
2018-11-14T14:31:23.491Z,21.07
2018-11-14T14:37:18.494Z,23.8
2018-11-14T14:43:13.484Z,20.83
2018-11-14T14:49:08.476Z,22.46
2018-11-14T14:55:03.661Z,23.32
2018-11-14T15:00:58.509Z,21.15
2018-11-14T15:06:53.539Z,17.03
2018-11-14T15:12:48.477Z,16.32
2018-11-14T15:18:43.490Z,12.88
2018-11-14T15:24:38.483Z,11.99
2018-11-14T15:30:33.505Z,13.31
2018-11-14T15:36:28.498Z,12.55
2018-11-14T15:42:23.517Z,13.96
2018-11-14T15:48:18.508Z,13.65
2018-11-14T15:54:13.479Z,13.96
2018-11-14T16:00:08.499Z,12.89
2018-11-14T16:06:03.519Z,13.32
2018-11-14T16:11:58.555Z,13.19
2018-11-14T16:17:53.575Z,14.53
2018-11-14T16:23:48.516Z,14.22
2018-11-14T16:29:43.501Z,15.46
2018-11-14T16:35:38.558Z,12.92
2018-11-14T16:41:33.510Z,14.01
2018-11-14T16:47:28.505Z,12.67
2018-11-14T16:53:23.524Z,13.63
2018-11-14T16:59:18.511Z,14.63
2018-11-14T17:05:13.529Z,12.64
2018-11-14T17:11:08.534Z,13.58
2018-11-14T17:17:03.518Z,13.02
2018-11-14T17:22:58.519Z,11.91
2018-11-14T17:28:53.577Z,11.9
2018-11-14T17:34:48.523Z,11.9
2018-11-14T17:40:43.531Z,11.4
2018-11-14T17:46:38.552Z,11.07
2018-11-14T17:52:33.551Z,12.55
2018-11-14T17:58:28.574Z,13.84
2018-11-14T18:04:23.547Z,14.37
2018-11-14T18:10:18.525Z,13.16
2018-11-14T18:16:13.584Z,13.83
2018-11-14T18:22:08.530Z,12.54
2018-11-14T18:28:03.544Z,13.3
2018-11-14T18:33:58.529Z,12.91
2018-11-14T18:39:53.543Z,12.86
2018-11-14T18:45:48.605Z,11.37
2018-11-14T18:51:43.548Z,11.99
2018-11-14T18:57:38.607Z,11.6
2018-11-14T19:03:33.612Z,11.88
2018-11-14T19:09:28.614Z,10.89
2018-11-14T19:15:23.567Z,11.75
2018-11-14T19:21:18.554Z,13.39
2018-11-14T19:27:13.559Z,12.74
2018-11-14T19:33:08.569Z,11.61
2018-11-14T19:39:03.577Z,11.39
2018-11-14T19:44:58.562Z,11.55
2018-11-14T19:50:53.569Z,10.58
2018-11-14T19:56:48.575Z,12.28
2018-11-14T20:02:43.585Z,12.92
2018-11-14T20:08:38.578Z,15.54
2018-11-14T20:14:33.574Z,12.43
2018-11-14T20:20:28.579Z,12.32
2018-11-14T20:26:23.716Z,14.43
2018-11-14T20:32:18.551Z,13.74
2018-11-14T20:38:13.566Z,15.11
2018-11-14T20:44:08.558Z,13.04
2018-11-14T20:50:03.574Z,13.57
2018-11-14T20:55:58.631Z,12.49
2018-11-14T21:01:53.598Z,11.9
2018-11-14T21:07:48.592Z,9.96
2018-11-14T21:13:43.603Z,10.45
2018-11-14T21:19:38.567Z,9.65
2018-11-14T21:25:33.588Z,10.61
2018-11-14T21:31:28.590Z,13.08
2018-11-14T21:37:23.632Z,13.64
2018-11-14T21:43:18.596Z,11.41
2018-11-14T21:49:13.633Z,12.96
2018-11-14T21:55:08.606Z,12.8
2018-11-14T22:01:03.588Z,13.51
2018-11-14T22:06:58.598Z,14.91
2018-11-14T22:12:53.578Z,14.56
2018-11-14T22:18:48.620Z,15.89
2018-11-14T22:24:43.650Z,15.18
2018-11-14T22:30:38.645Z,13.43
2018-11-14T22:36:33.653Z,13.65
2018-11-14T22:42:28.593Z,14.72
2018-11-14T22:48:23.659Z,16.53
2018-11-14T22:54:18.602Z,18.97
2018-11-14T23:00:13.605Z,19.63
2018-11-14T23:06:08.600Z,18.17
2018-11-14T23:12:03.637Z,19.56
2018-11-14T23:17:58.636Z,18.71
2018-11-14T23:23:53.645Z,15.55
2018-11-14T23:29:48.619Z,15.45
2018-11-14T23:35:43.624Z,14.5
2018-11-14T23:41:38.601Z,15.61
2018-11-14T23:47:33.611Z,13.86
2018-11-14T23:53:28.629Z,14.06
2018-11-14T23:59:23.616Z,13.57
